Time;durP1;ratioP1;P1;durP2;ratioP2;P2;SDS_P1;SDS_P2;PMS_P1;PMS_P2;Temp;Humidity;BMP_temperature;BMP_pressure;BME280_temperature;BME280_humidity;BME280_pressure;Samples;Min_cycle;Max_cycle;Signal;HPM_P1;HPM_P2
2022/12/16 00:02:07;;;;;;;167.20;73.37;;;;;;;-1.89;100.00;97279.02;1740671;80;20888;-80
2022/12/16 00:04:33;;;;;;;162.18;71.07;;;;;;;-1.88;100.00;97280.64;1793542;80;21551;-81
2022/12/16 00:06:59;;;;;;;164.62;68.57;;;;;;;-1.86;100.00;97279.42;1793955;80;20940;-79
2022/12/16 00:09:25;;;;;;;153.97;70.40;;;;;;;-1.85;100.00;97286.87;1793647;80;21560;-79
2022/12/16 00:11:50;;;;;;;177.57;71.72;;;;;;;-1.87;100.00;97279.64;1793924;80;21144;-79
2022/12/16 00:14:16;;;;;;;162.77;71.82;;;;;;;-1.91;100.00;97288.54;1707706;81;20956;-80
2022/12/16 00:16:42;;;;;;;167.53;68.57;;;;;;;-1.92;100.00;97282.94;1732327;82;20944;-79
2022/12/16 00:19:08;;;;;;;170.40;71.17;;;;;;;-1.90;100.00;97286.18;1784835;80;21460;-79
2022/12/16 00:21:35;;;;;;;158.93;69.07;;;;;;;-1.88;100.00;97286.80;1793941;80;20882;-81
2022/12/16 00:24:01;;;;;;;170.40;72.30;;;;;;;-1.92;100.00;97278.14;1743761;80;21189;-80
2022/12/16 00:26:28;;;;;;;167.03;70.87;;;;;;;-1.95;100.00;97281.25;1732102;82;20999;-81
2022/12/16 00:28:54;;;;;;;169.02;71.37;;;;;;;-1.98;100.00;97277.16;1747573;81;21010;-80
2022/12/16 00:31:20;;;;;;;175.05;73.05;;;;;;;-1.94;100.00;97268.27;1752498;81;21556;-79
2022/12/16 00:33:46;;;;;;;164.88;71.25;;;;;;;-1.94;100.00;97265.61;1752524;81;20871;-81
2022/12/16 00:36:12;;;;;;;167.47;65.30;;;;;;;-1.92;100.00;97264.87;1752906;81;21847;-81
2022/12/16 00:38:38;;;;;;;168.25;68.65;;;;;;;-1.89;100.00;97265.75;1752511;81;20958;-79
2022/12/16 00:41:04;;;;;;;167.93;71.42;;;;;;;-1.94;100.00;97267.75;1752668;81;20986;-78
2022/12/16 00:43:30;;;;;;;168.45;69.37;;;;;;;-1.92;100.00;97267.00;1711789;82;20980;-81
2022/12/16 00:45:56;;;;;;;181.37;75.90;;;;;;;-1.92;100.00;97270.17;1732210;82;20960;-81
2022/12/16 00:48:22;;;;;;;201.92;85.38;;;;;;;-1.90;100.00;97269.44;1743006;81;21083;-79
2022/12/16 00:50:52;;;;;;;185.45;80.28;;;;;;;-1.89;100.00;97269.73;1752844;81;20864;-81
2022/12/16 00:53:19;;;;;;;153.57;65.78;;;;;;;-1.85;100.00;97258.47;1752513;81;21042;-79
2022/12/16 00:55:45;;;;;;;174.93;69.82;;;;;;;-1.82;100.00;97261.19;1728415;81;21011;-81
2022/12/16 00:58:12;;;;;;;158.87;67.03;;;;;;;-1.82;100.00;97256.69;1776598;80;20886;-79
2022/12/16 01:00:38;;;;;;;150.03;63.68;;;;;;;-1.85;100.00;97252.34;1792390;80;21129;-80
2022/12/16 01:03:04;;;;;;;162.05;66.80;;;;;;;-1.85;100.00;97265.11;1761956;81;20955;-79
2022/12/16 01:05:30;;;;;;;149.75;65.17;;;;;;;-1.86;100.00;97262.67;1762470;81;20967;-80
2022/12/16 01:07:56;;;;;;;158.90;63.83;;;;;;;-1.88;100.00;97258.91;1762138;81;20845;-81
2022/12/16 01:10:23;;;;;;;178.40;78.00;;;;;;;-1.84;100.00;97251.31;1762486;81;21015;-81
2022/12/16 01:12:49;;;;;;;160.55;68.07;;;;;;;-1.82;100.00;97243.41;1759270;81;21014;-78
2022/12/16 01:15:15;;;;;;;177.70;76.57;;;;;;;-1.81;100.00;97234.41;1752684;81;21009;-81
2022/12/16 01:17:41;;;;;;;163.25;71.82;;;;;;;-1.80;100.00;97228.58;1752494;81;20910;-79
2022/12/16 01:20:09;;;;;;;177.07;70.57;;;;;;;-1.79;100.00;97227.05;1725006;81;20894;-81
2022/12/16 01:22:35;;;;;;;160.65;64.80;;;;;;;-1.80;100.00;97220.61;1752686;81;21462;-81
2022/12/16 01:25:01;;;;;;;150.62;65.87;;;;;;;-1.82;100.00;97217.37;1752786;81;21144;-81
2022/12/16 01:27:27;;;;;;;148.17;65.30;;;;;;;-1.82;100.00;97213.38;1752696;80;21591;-79
2022/12/16 01:29:54;;;;;;;160.90;65.67;;;;;;;-1.82;100.00;97212.05;1752714;81;21061;-79
2022/12/16 01:32:19;;;;;;;159.10;67.82;;;;;;;-1.82;100.00;97213.38;1752532;80;21010;-79
2022/12/16 01:34:51;;;;;;;138.32;63.98;;;;;;;-1.80;100.00;97206.81;1752810;81;20942;-79
2022/12/16 01:37:17;;;;;;;133.95;58.78;;;;;;;-1.78;100.00;97202.11;1752017;81;21087;-78
2022/12/16 01:39:43;;;;;;;132.80;53.63;;;;;;;-1.81;100.00;97204.37;1752409;81;20954;-81
2022/12/16 01:42:16;;;;;;;141.70;58.98;;;;;;;-1.80;100.00;97202.02;1752717;81;20879;-78
2022/12/16 01:44:44;;;;;;;142.93;57.40;;;;;;;-1.84;100.00;97200.33;1752386;81;21415;-79
2022/12/16 01:47:17;;;;;;;132.52;52.45;;;;;;;-1.82;100.00;97210.20;1752611;81;20990;-79
2022/12/16 01:50:02;;;;;;;179.18;71.12;;;;;;;-1.80;100.00;97201.50;1724312;81;21804;-79
2022/12/16 01:52:33;;;;;;;194.22;90.07;;;;;;;-1.81;100.00;97199.06;1752321;81;20986;-79
2022/12/16 01:55:08;;;;;;;179.27;76.45;;;;;;;-1.81;100.00;97193.75;1753668;81;21439;-81
2022/12/16 01:57:42;;;;;;;142.13;58.63;;;;;;;-1.87;100.00;97192.81;1770232;80;21397;-79
2022/12/16 02:00:09;;;;;;;141.97;61.85;;;;;;;-1.89;100.00;97191.39;1793361;80;20985;-81
2022/12/16 02:02:35;;;;;;;159.52;67.75;;;;;;;-1.94;100.00;97189.41;1745486;80;21096;-81
2022/12/16 02:05:19;;;;;;;181.15;79.77;;;;;;;-1.94;100.00;97184.62;1752702;81;20879;-81
2022/12/16 02:08:10;;;;;;;158.80;75.12;;;;;;;-2.03;100.00;97180.11;1755367;81;20972;-81
2022/12/16 02:11:23;;;;;;;152.27;66.37;;;;;;;-2.01;100.00;97169.55;1762385;81;20972;-81
2022/12/16 02:13:58;;;;;;;151.27;62.88;;;;;;;-1.97;100.00;97176.55;1755118;81;20991;-81
2022/12/16 02:16:41;;;;;;;144.65;56.25;;;;;;;-2.00;100.00;97170.37;1736031;81;21074;-78
2022/12/16 02:19:40;;;;;;;141.12;57.40;;;;;;;-2.00;100.00;97165.87;1760099;79;21058;-81
2022/12/16 02:22:50;;;;;;;145.90;63.28;;;;;;;-2.00;100.00;97165.05;1761276;81;21440;-81
2022/12/16 02:25:36;;;;;;;130.40;58.95;;;;;;;-2.03;100.00;97166.31;1762058;81;20978;-81
2022/12/16 02:28:12;;;;;;;154.80;66.87;;;;;;;-1.99;100.00;97160.84;1761794;81;21043;-80
2022/12/16 02:30:55;;;;;;;139.32;59.33;;;;;;;-1.97;100.00;97149.19;1762251;81;21099;-80
2022/12/16 02:33:41;;;;;;;136.03;58.65;;;;;;;-2.00;100.00;97143.81;1778594;80;21068;-81
2022/12/16 02:36:40;;;;;;;136.55;56.20;;;;;;;-2.02;100.00;97137.41;1793926;80;21328;-80
2022/12/16 02:39:26;;;;;;;;;;;;;;;-2.01;100.00;97136.37;1795935;80;21386;-79
2022/12/16 02:42:22;;;;;;;130.52;57.33;;;;;;;-2.02;100.00;97128.11;1793611;80;20147;-79
2022/12/16 02:45:16;;;;;;;138.90;61.45;;;;;;;-1.99;100.00;97127.66;1793568;80;21481;-79
2022/12/16 02:47:43;;;;;;;134.82;58.52;;;;;;;-1.95;100.00;97123.25;1793661;80;21497;-80
2022/12/16 02:50:29;;;;;;;163.32;72.08;;;;;;;-1.93;100.00;97122.50;1793709;80;20993;-81
2022/12/16 02:52:55;;;;;;;150.25;64.35;;;;;;;-1.94;100.00;97119.56;1793572;80;21001;-79
2022/12/16 02:55:22;;;;;;;146.68;58.70;;;;;;;-1.94;100.00;97116.91;1779617;80;20929;-79
2022/12/16 02:58:08;;;;;;;142.07;57.05;;;;;;;-1.99;100.00;97109.07;1720785;81;21135;-78
2022/12/16 03:01:01;;;;;;;125.27;54.85;;;;;;;-2.05;100.00;97106.48;1762286;81;21020;-80
2022/12/16 03:03:38;;;;;;;134.63;54.03;;;;;;;-2.01;100.00;97101.05;1762262;81;21004;-81
2022/12/16 03:06:04;;;;;;;141.77;54.30;;;;;;;-2.00;100.00;97099.48;1748552;81;21510;-80
2022/12/16 03:08:34;;;;;;;131.63;53.85;;;;;;;-2.00;100.00;97090.71;1762313;79;21026;-81
2022/12/16 03:11:02;;;;;;;142.98;59.88;;;;;;;-1.97;100.00;97092.10;1762548;81;21824;-81
2022/12/16 03:13:32;;;;;;;144.90;58.68;;;;;;;-1.97;100.00;97086.27;1762258;81;21018;-81
2022/12/16 03:15:58;;;;;;;152.78;66.62;;;;;;;-1.97;100.00;97083.62;1762358;81;21003;-81
2022/12/16 03:18:23;;;;;;;123.58;54.25;;;;;;;-1.94;100.00;97079.73;1757174;81;21564;-81
2022/12/16 03:20:54;;;;;;;141.05;54.65;;;;;;;-1.93;100.00;97071.53;1753085;81;20938;-79
2022/12/16 03:23:26;;;;;;;143.62;62.45;;;;;;;-1.94;100.00;97069.92;1752542;81;21066;-79
2022/12/16 03:25:55;;;;;;;128.78;56.98;;;;;;;-1.97;100.00;97057.06;1752123;81;21010;-79
2022/12/16 03:28:43;;;;;;;142.18;56.13;;;;;;;-1.94;100.00;97053.17;1752644;80;21085;-79
2022/12/16 03:31:38;;;;;;;131.35;54.08;;;;;;;-1.94;100.00;97042.55;1752589;81;20963;-79
2022/12/16 03:34:26;;;;;;;130.70;52.23;;;;;;;-1.94;100.00;97050.52;1746016;81;21003;-79
2022/12/16 03:36:55;;;;;;;124.62;50.92;;;;;;;-1.97;100.00;97039.00;1759408;81;21141;-79
2022/12/16 03:39:22;;;;;;;103.65;39.80;;;;;;;-1.95;100.00;97038.28;1722450;81;21059;-79
2022/12/16 03:41:52;;;;;;;134.18;56.23;;;;;;;-1.96;100.00;97026.05;1732228;82;21004;-79
2022/12/16 03:44:18;;;;;;;125.85;58.63;;;;;;;-1.94;100.00;97018.66;1750625;81;20986;-79
2022/12/16 03:46:44;;;;;;;119.33;50.50;;;;;;;-1.91;100.00;97016.87;1752802;81;21009;-81
2022/12/16 03:49:10;;;;;;;129.78;56.73;;;;;;;-1.89;100.00;97020.91;1752597;81;21525;-79
2022/12/16 03:51:36;;;;;;;127.32;51.95;;;;;;;-1.88;100.00;97014.59;1752918;81;20843;-80
2022/12/16 03:54:02;;;;;;;130.40;58.00;;;;;;;-1.87;100.00;97005.59;1752576;81;20906;-81
2022/12/16 03:56:28;;;;;;;132.95;55.65;;;;;;;-1.86;100.00;96999.76;1760684;81;20952;-79
2022/12/16 03:58:53;;;;;;;123.67;53.08;;;;;;;-1.87;100.00;96994.16;1728649;81;20980;-81
2022/12/16 04:01:19;;;;;;;115.20;52.05;;;;;;;-1.88;100.00;96993.34;1732172;82;21139;-81
2022/12/16 04:03:45;;;;;;;120.15;49.55;;;;;;;-1.92;100.00;96987.37;1731970;81;20940;-81
2022/12/16 04:06:11;;;;;;;113.57;50.88;;;;;;;-1.96;100.00;96975.59;1732313;82;20956;-82
2022/12/16 04:08:37;;;;;;;115.80;47.45;;;;;;;-1.99;100.00;96965.69;1708371;82;21083;-80
2022/12/16 04:25:21;;;;;;;110.72;49.33;;;;;;;-2.05;100.00;96987.85;1793744;80;20954;-80
2022/12/16 04:27:47;;;;;;;113.72;47.70;;;;;;;-2.05;100.00;96985.69;1793768;80;21718;-79
2022/12/16 04:30:17;;;;;;;112.60;48.60;;;;;;;-2.05;100.00;96991.00;1793457;80;21661;-79
